sensor_id;sensor_type;location;lat;lon;timestamp;P1;durP1;ratioP1;P2;durP2;ratioP2
17382;SDS011;8809;51.892;8.384;2023-05-17T00:00:13;5.93;;;2.40;;
17382;SDS011;8809;51.892;8.384;2023-05-17T00:02:41;3.72;;;2.47;;
17382;SDS011;8809;51.892;8.384;2023-05-17T00:05:08;4.03;;;2.22;;
17382;SDS011;8809;51.892;8.384;2023-05-17T00:07:36;3.53;;;2.10;;
17382;SDS011;8809;51.892;8.384;2023-05-17T00:10:04;3.80;;;2.42;;
17382;SDS011;8809;51.892;8.384;2023-05-17T00:12:32;4.72;;;2.35;;
17382;SDS011;8809;51.892;8.384;2023-05-17T00:14:59;4.07;;;2.20;;
17382;SDS011;8809;51.892;8.384;2023-05-17T00:17:28;4.30;;;2.50;;
17382;SDS011;8809;51.892;8.384;2023-05-17T00:19:56;3.30;;;2.50;;
17382;SDS011;8809;51.892;8.384;2023-05-17T00:22:23;3.63;;;2.30;;
17382;SDS011;8809;51.892;8.384;2023-05-17T00:24:50;3.40;;;2.45;;
17382;SDS011;8809;51.892;8.384;2023-05-17T00:27:17;4.65;;;2.25;;
17382;SDS011;8809;51.892;8.384;2023-05-17T00:29:44;4.82;;;2.35;;
17382;SDS011;8809;51.892;8.384;2023-05-17T00:32:11;3.28;;;2.00;;
17382;SDS011;8809;51.892;8.384;2023-05-17T00:34:40;3.30;;;2.15;;
17382;SDS011;8809;51.892;8.384;2023-05-17T00:37:07;3.92;;;2.42;;
17382;SDS011;8809;51.892;8.384;2023-05-17T00:39:34;4.43;;;2.58;;
17382;SDS011;8809;51.892;8.384;2023-05-17T00:42:01;3.45;;;2.33;;
17382;SDS011;8809;51.892;8.384;2023-05-17T00:44:29;4.07;;;2.25;;
17382;SDS011;8809;51.892;8.384;2023-05-17T00:46:56;4.10;;;2.47;;
17382;SDS011;8809;51.892;8.384;2023-05-17T00:49:24;5.80;;;2.80;;
17382;SDS011;8809;51.892;8.384;2023-05-17T00:51:53;3.90;;;2.70;;
17382;SDS011;8809;51.892;8.384;2023-05-17T00:54:21;5.65;;;2.22;;
17382;SDS011;8809;51.892;8.384;2023-05-17T00:56:48;3.92;;;2.50;;
17382;SDS011;8809;51.892;8.384;2023-05-17T00:59:15;3.90;;;2.30;;
17382;SDS011;8809;51.892;8.384;2023-05-17T01:01:43;4.35;;;2.67;;
17382;SDS011;8809;51.892;8.384;2023-05-17T01:04:10;5.97;;;2.92;;
17382;SDS011;8809;51.892;8.384;2023-05-17T01:06:37;2.70;;;2.20;;
17382;SDS011;8809;51.892;8.384;2023-05-17T01:09:06;8.73;;;3.08;;
17382;SDS011;8809;51.892;8.384;2023-05-17T01:11:37;4.68;;;2.78;;
17382;SDS011;8809;51.892;8.384;2023-05-17T01:14:13;3.75;;;2.53;;
17382;SDS011;8809;51.892;8.384;2023-05-17T01:16:48;5.40;;;2.88;;
17382;SDS011;8809;51.892;8.384;2023-05-17T01:19:26;4.65;;;2.40;;
17382;SDS011;8809;51.892;8.384;2023-05-17T01:22:14;5.70;;;2.78;;
17382;SDS011;8809;51.892;8.384;2023-05-17T01:24:49;4.47;;;2.70;;
17382;SDS011;8809;51.892;8.384;2023-05-17T01:27:26;5.25;;;2.80;;
17382;SDS011;8809;51.892;8.384;2023-05-17T01:29:55;4.40;;;2.72;;
17382;SDS011;8809;51.892;8.384;2023-05-17T01:32:24;4.55;;;2.90;;
17382;SDS011;8809;51.892;8.384;2023-05-17T01:34:51;4.80;;;2.90;;
17382;SDS011;8809;51.892;8.384;2023-05-17T01:37:19;6.03;;;2.60;;
17382;SDS011;8809;51.892;8.384;2023-05-17T01:39:46;4.15;;;2.78;;
17382;SDS011;8809;51.892;8.384;2023-05-17T01:42:15;6.13;;;2.92;;
17382;SDS011;8809;51.892;8.384;2023-05-17T01:44:49;5.47;;;3.08;;
17382;SDS011;8809;51.892;8.384;2023-05-17T01:47:26;4.90;;;2.63;;
17382;SDS011;8809;51.892;8.384;2023-05-17T01:49:58;5.28;;;2.42;;
17382;SDS011;8809;51.892;8.384;2023-05-17T01:52:28;3.95;;;2.70;;
17382;SDS011;8809;51.892;8.384;2023-05-17T01:55:01;3.83;;;2.83;;
17382;SDS011;8809;51.892;8.384;2023-05-17T01:57:33;4.05;;;2.80;;
17382;SDS011;8809;51.892;8.384;2023-05-17T02:00:05;3.53;;;2.40;;
17382;SDS011;8809;51.892;8.384;2023-05-17T02:02:35;5.20;;;3.00;;
17382;SDS011;8809;51.892;8.384;2023-05-17T02:05:03;5.95;;;2.80;;
17382;SDS011;8809;51.892;8.384;2023-05-17T02:07:30;7.22;;;3.15;;
17382;SDS011;8809;51.892;8.384;2023-05-17T02:09:57;4.63;;;2.60;;
17382;SDS011;8809;51.892;8.384;2023-05-17T02:12:25;5.85;;;2.60;;
17382;SDS011;8809;51.892;8.384;2023-05-17T02:14:52;4.50;;;2.80;;
17382;SDS011;8809;51.892;8.384;2023-05-17T02:17:21;5.53;;;2.80;;
17382;SDS011;8809;51.892;8.384;2023-05-17T02:19:48;4.68;;;3.03;;
17382;SDS011;8809;51.892;8.384;2023-05-17T02:22:15;3.95;;;2.78;;
17382;SDS011;8809;51.892;8.384;2023-05-17T02:24:42;4.57;;;2.80;;
17382;SDS011;8809;51.892;8.384;2023-05-17T02:27:11;5.28;;;2.88;;
17382;SDS011;8809;51.892;8.384;2023-05-17T02:29:38;5.53;;;2.60;;
17382;SDS011;8809;51.892;8.384;2023-05-17T02:32:05;5.75;;;2.90;;
17382;SDS011;8809;51.892;8.384;2023-05-17T02:34:39;7.18;;;3.10;;
17382;SDS011;8809;51.892;8.384;2023-05-17T02:37:06;6.82;;;2.95;;
17382;SDS011;8809;51.892;8.384;2023-05-17T02:39:33;6.22;;;2.80;;
17382;SDS011;8809;51.892;8.384;2023-05-17T02:42:01;5.38;;;3.10;;
17382;SDS011;8809;51.892;8.384;2023-05-17T02:44:30;5.45;;;2.80;;
17382;SDS011;8809;51.892;8.384;2023-05-17T02:46:57;4.15;;;2.42;;
17382;SDS011;8809;51.892;8.384;2023-05-17T02:51:55;5.22;;;2.80;;
17382;SDS011;8809;51.892;8.384;2023-05-17T02:54:22;5.45;;;2.70;;
17382;SDS011;8809;51.892;8.384;2023-05-17T02:56:49;5.90;;;3.17;;
17382;SDS011;8809;51.892;8.384;2023-05-17T02:59:17;6.55;;;3.28;;
17382;SDS011;8809;51.892;8.384;2023-05-17T03:01:44;4.68;;;2.80;;
17382;SDS011;8809;51.892;8.384;2023-05-17T03:04:11;4.13;;;2.60;;
17382;SDS011;8809;51.892;8.384;2023-05-17T03:06:38;7.57;;;2.97;;
17382;SDS011;8809;51.892;8.384;2023-05-17T03:09:07;6.93;;;2.97;;
17382;SDS011;8809;51.892;8.384;2023-05-17T03:11:34;3.85;;;2.60;;
17382;SDS011;8809;51.892;8.384;2023-05-17T03:14:01;3.70;;;2.65;;
17382;SDS011;8809;51.892;8.384;2023-05-17T03:16:28;5.57;;;3.00;;
17382;SDS011;8809;51.892;8.384;2023-05-17T03:18:55;3.95;;;2.50;;
17382;SDS011;8809;51.892;8.384;2023-05-17T03:21:22;3.80;;;2.80;;
17382;SDS011;8809;51.892;8.384;2023-05-17T03:23:49;5.05;;;2.65;;
17382;SDS011;8809;51.892;8.384;2023-05-17T03:26:18;6.13;;;2.97;;
17382;SDS011;8809;51.892;8.384;2023-05-17T03:28:45;6.28;;;3.15;;
17382;SDS011;8809;51.892;8.384;2023-05-17T03:31:12;3.90;;;2.70;;
17382;SDS011;8809;51.892;8.384;2023-05-17T03:33:39;5.95;;;3.17;;
17382;SDS011;8809;51.892;8.384;2023-05-17T03:36:06;8.55;;;3.20;;
17382;SDS011;8809;51.892;8.384;2023-05-17T03:38:34;4.88;;;2.50;;
17382;SDS011;8809;51.892;8.384;2023-05-17T03:41:01;4.57;;;3.17;;
17382;SDS011;8809;51.892;8.384;2023-05-17T03:43:31;5.68;;;2.78;;
17382;SDS011;8809;51.892;8.384;2023-05-17T03:45:58;5.97;;;2.80;;
17382;SDS011;8809;51.892;8.384;2023-05-17T03:48:25;4.97;;;2.65;;
17382;SDS011;8809;51.892;8.384;2023-05-17T03:50:52;4.68;;;2.80;;
17382;SDS011;8809;51.892;8.384;2023-05-17T03:53:19;5.28;;;2.72;;
17382;SDS011;8809;51.892;8.384;2023-05-17T03:55:47;7.65;;;3.38;;
17382;SDS011;8809;51.892;8.384;2023-05-17T03:58:14;6.60;;;2.67;;
17382;SDS011;8809;51.892;8.384;2023-05-17T04:00:43;7.95;;;3.38;;
17382;SDS011;8809;51.892;8.384;2023-05-17T04:03:10;4.75;;;2.78;;
17382;SDS011;8809;51.892;8.384;2023-05-17T04:05:38;5.03;;;3.25;;
17382;SDS011;8809;51.892;8.384;2023-05-17T04:08:05;4.88;;;2.88;;
17382;SDS011;8809;51.892;8.384;2023-05-17T04:10:32;7.10;;;3.13;;
17382;SDS011;8809;51.892;8.384;2023-05-17T04:12:59;5.47;;;3.22;;
17382;SDS011;8809;51.892;8.384;2023-05-17T04:15:26;7.30;;;3.55;;
17382;SDS011;8809;51.892;8.384;2023-05-17T04:17:55;6.43;;;3.50;;
17382;SDS011;8809;51.892;8.384;2023-05-17T04:20:22;7.97;;;3.67;;
17382;SDS011;8809;51.892;8.384;2023-05-17T04:22:51;6.97;;;3.50;;
17382;SDS011;8809;51.892;8.384;2023-05-17T04:25:18;5.28;;;2.88;;
17382;SDS011;8809;51.892;8.384;2023-05-17T04:27:45;5.38;;;2.97;;
17382;SDS011;8809;51.892;8.384;2023-05-17T04:30:13;6.00;;;3.50;;
17382;SDS011;8809;51.892;8.384;2023-05-17T04:32:40;4.63;;;2.80;;
17382;SDS011;8809;51.892;8.384;2023-05-17T04:35:09;7.47;;;3.95;;
17382;SDS011;8809;51.892;8.384;2023-05-17T04:37:37;5.47;;;3.15;;
17382;SDS011;8809;51.892;8.384;2023-05-17T04:40:05;5.38;;;3.25;;
17382;SDS011;8809;51.892;8.384;2023-05-17T04:42:34;6.85;;;3.20;;
17382;SDS011;8809;51.892;8.384;2023-05-17T04:45:01;5.00;;;3.30;;
17382;SDS011;8809;51.892;8.384;2023-05-17T04:47:28;10.00;;;3.60;;
17382;SDS011;8809;51.892;8.384;2023-05-17T04:49:56;8.40;;;3.55;;
17382;SDS011;8809;51.892;8.384;2023-05-17T04:52:25;6.32;;;3.67;;
17382;SDS011;8809;51.892;8.384;2023-05-17T04:54:52;9.05;;;3.63;;
17382;SDS011;8809;51.892;8.384;2023-05-17T04:57:19;7.03;;;3.90;;
17382;SDS011;8809;51.892;8.384;2023-05-17T04:59:46;7.65;;;4.22;;
17382;SDS011;8809;51.892;8.384;2023-05-17T05:02:13;8.10;;;3.95;;
17382;SDS011;8809;51.892;8.384;2023-05-17T05:04:40;14.68;;;5.65;;
17382;SDS011;8809;51.892;8.384;2023-05-17T05:07:07;8.52;;;4.30;;
17382;SDS011;8809;51.892;8.384;2023-05-17T05:09:36;9.45;;;3.90;;
17382;SDS011;8809;51.892;8.384;2023-05-17T05:12:04;9.00;;;3.53;;
17382;SDS011;8809;51.892;8.384;2023-05-17T05:14:31;9.95;;;4.40;;
17382;SDS011;8809;51.892;8.384;2023-05-17T05:16:59;11.75;;;4.85;;
17382;SDS011;8809;51.892;8.384;2023-05-17T05:19:27;8.13;;;4.30;;
17382;SDS011;8809;51.892;8.384;2023-05-17T05:21:54;14.80;;;4.80;;
17382;SDS011;8809;51.892;8.384;2023-05-17T05:24:22;8.48;;;4.22;;
17382;SDS011;8809;51.892;8.384;2023-05-17T05:26:51;10.38;;;4.85;;
17382;SDS011;8809;51.892;8.384;2023-05-17T05:29:18;8.70;;;4.18;;
17382;SDS011;8809;51.892;8.384;2023-05-17T05:31:45;6.78;;;3.22;;
17382;SDS011;8809;51.892;8.384;2023-05-17T05:34:13;5.60;;;3.67;;
17382;SDS011;8809;51.892;8.384;2023-05-17T05:36:40;10.57;;;3.80;;
17382;SDS011;8809;51.892;8.384;2023-05-17T05:39:08;8.68;;;3.47;;
17382;SDS011;8809;51.892;8.384;2023-05-17T05:41:37;7.97;;;3.55;;
17382;SDS011;8809;51.892;8.384;2023-05-17T05:44:05;14.13;;;5.13;;
17382;SDS011;8809;51.892;8.384;2023-05-17T05:46:33;10.35;;;3.97;;
17382;SDS011;8809;51.892;8.384;2023-05-17T05:49:00;13.05;;;4.88;;
17382;SDS011;8809;51.892;8.384;2023-05-17T05:51:27;9.38;;;4.78;;
17382;SDS011;8809;51.892;8.384;2023-05-17T05:53:54;7.15;;;3.97;;
17382;SDS011;8809;51.892;8.384;2023-05-17T05:56:22;11.40;;;4.05;;
17382;SDS011;8809;51.892;8.384;2023-05-17T05:58:52;10.45;;;4.40;;
17382;SDS011;8809;51.892;8.384;2023-05-17T06:01:22;11.70;;;5.40;;
17382;SDS011;8809;51.892;8.384;2023-05-17T06:03:49;12.68;;;4.88;;
17382;SDS011;8809;51.892;8.384;2023-05-17T06:06:19;10.45;;;4.88;;
17382;SDS011;8809;51.892;8.384;2023-05-17T06:08:46;13.38;;;4.45;;
17382;SDS011;8809;51.892;8.384;2023-05-17T06:11:13;7.68;;;3.95;;
17382;SDS011;8809;51.892;8.384;2023-05-17T06:13:41;13.25;;;5.10;;
17382;SDS011;8809;51.892;8.384;2023-05-17T06:16:08;9.05;;;4.25;;
17382;SDS011;8809;51.892;8.384;2023-05-17T06:18:37;8.07;;;3.60;;
17382;SDS011;8809;51.892;8.384;2023-05-17T06:21:04;9.98;;;4.22;;
17382;SDS011;8809;51.892;8.384;2023-05-17T06:23:31;8.85;;;4.10;;
17382;SDS011;8809;51.892;8.384;2023-05-17T06:25:58;7.20;;;3.58;;
17382;SDS011;8809;51.892;8.384;2023-05-17T06:28:27;10.80;;;3.88;;
17382;SDS011;8809;51.892;8.384;2023-05-17T06:30:54;5.85;;;3.10;;
17382;SDS011;8809;51.892;8.384;2023-05-17T06:33:21;7.00;;;2.83;;
17382;SDS011;8809;51.892;8.384;2023-05-17T06:35:50;5.43;;;3.17;;
17382;SDS011;8809;51.892;8.384;2023-05-17T06:38:17;8.70;;;3.30;;
17382;SDS011;8809;51.892;8.384;2023-05-17T06:40:44;6.97;;;3.40;;
17382;SDS011;8809;51.892;8.384;2023-05-17T06:43:12;6.93;;;3.13;;
17382;SDS011;8809;51.892;8.384;2023-05-17T06:45:39;5.57;;;2.60;;
17382;SDS011;8809;51.892;8.384;2023-05-17T06:48:06;6.40;;;2.80;;
17382;SDS011;8809;51.892;8.384;2023-05-17T06:50:34;7.32;;;2.92;;
17382;SDS011;8809;51.892;8.384;2023-05-17T06:53:03;9.52;;;3.22;;
17382;SDS011;8809;51.892;8.384;2023-05-17T06:55:30;6.32;;;2.22;;
17382;SDS011;8809;51.892;8.384;2023-05-17T06:57:58;5.40;;;2.47;;
17382;SDS011;8809;51.892;8.384;2023-05-17T07:00:25;7.13;;;2.75;;
17382;SDS011;8809;51.892;8.384;2023-05-17T07:02:53;7.10;;;3.00;;
17382;SDS011;8809;51.892;8.384;2023-05-17T07:05:21;8.55;;;2.25;;
17382;SDS011;8809;51.892;8.384;2023-05-17T07:07:49;5.10;;;2.13;;
17382;SDS011;8809;51.892;8.384;2023-05-17T07:10:21;6.30;;;2.63;;
17382;SDS011;8809;51.892;8.384;2023-05-17T07:12:48;10.25;;;2.83;;
17382;SDS011;8809;51.892;8.384;2023-05-17T07:15:15;11.07;;;3.28;;
17382;SDS011;8809;51.892;8.384;2023-05-17T07:17:43;9.13;;;3.22;;
17382;SDS011;8809;51.892;8.384;2023-05-17T07:20:10;8.20;;;3.38;;
17382;SDS011;8809;51.892;8.384;2023-05-17T07:22:39;9.70;;;3.35;;
17382;SDS011;8809;51.892;8.384;2023-05-17T07:25:06;11.52;;;2.67;;
17382;SDS011;8809;51.892;8.384;2023-05-17T07:27:37;5.85;;;2.35;;
17382;SDS011;8809;51.892;8.384;2023-05-17T07:30:05;9.23;;;2.90;;
17382;SDS011;8809;51.892;8.384;2023-05-17T07:32:36;5.43;;;2.40;;
17382;SDS011;8809;51.892;8.384;2023-05-17T07:35:03;7.25;;;2.83;;
17382;SDS011;8809;51.892;8.384;2023-05-17T07:37:30;7.25;;;2.17;;
17382;SDS011;8809;51.892;8.384;2023-05-17T07:40:00;7.20;;;2.53;;
17382;SDS011;8809;51.892;8.384;2023-05-17T07:42:28;8.25;;;2.30;;
17382;SDS011;8809;51.892;8.384;2023-05-17T07:44:58;5.57;;;2.10;;
17382;SDS011;8809;51.892;8.384;2023-05-17T07:47:25;7.85;;;2.45;;
17382;SDS011;8809;51.892;8.384;2023-05-17T07:49:52;7.10;;;2.55;;
17382;SDS011;8809;51.892;8.384;2023-05-17T07:52:20;7.22;;;2.40;;
17382;SDS011;8809;51.892;8.384;2023-05-17T07:54:47;3.85;;;1.75;;
17382;SDS011;8809;51.892;8.384;2023-05-17T07:57:14;6.50;;;2.35;;
17382;SDS011;8809;51.892;8.384;2023-05-17T07:59:42;3.72;;;2.00;;
17382;SDS011;8809;51.892;8.384;2023-05-17T08:02:10;5.57;;;2.00;;
17382;SDS011;8809;51.892;8.384;2023-05-17T08:04:37;5.97;;;2.35;;
17382;SDS011;8809;51.892;8.384;2023-05-17T08:07:06;8.82;;;2.20;;
17382;SDS011;8809;51.892;8.384;2023-05-17T08:09:33;4.82;;;1.70;;
17382;SDS011;8809;51.892;8.384;2023-05-17T08:12:00;6.50;;;2.08;;
17382;SDS011;8809;51.892;8.384;2023-05-17T08:14:27;3.60;;;1.85;;
17382;SDS011;8809;51.892;8.384;2023-05-17T08:16:55;4.00;;;1.73;;
17382;SDS011;8809;51.892;8.384;2023-05-17T08:19:23;6.82;;;1.95;;
17382;SDS011;8809;51.892;8.384;2023-05-17T08:21:51;4.93;;;1.60;;
17382;SDS011;8809;51.892;8.384;2023-05-17T08:24:19;4.38;;;1.73;;
17382;SDS011;8809;51.892;8.384;2023-05-17T08:26:47;4.07;;;1.85;;
17382;SDS011;8809;51.892;8.384;2023-05-17T08:29:15;4.53;;;1.73;;
17382;SDS011;8809;51.892;8.384;2023-05-17T08:31:42;5.93;;;2.08;;
17382;SDS011;8809;51.892;8.384;2023-05-17T08:34:11;2.78;;;1.55;;
17382;SDS011;8809;51.892;8.384;2023-05-17T08:36:39;7.97;;;1.70;;
17382;SDS011;8809;51.892;8.384;2023-05-17T08:39:07;4.55;;;1.70;;
17382;SDS011;8809;51.892;8.384;2023-05-17T08:41:34;4.47;;;1.65;;
17382;SDS011;8809;51.892;8.384;2023-05-17T08:44:02;3.97;;;1.45;;
17382;SDS011;8809;51.892;8.384;2023-05-17T08:46:30;4.55;;;1.63;;
17382;SDS011;8809;51.892;8.384;2023-05-17T08:48:58;5.13;;;1.90;;
17382;SDS011;8809;51.892;8.384;2023-05-17T08:51:28;5.93;;;1.77;;
17382;SDS011;8809;51.892;8.384;2023-05-17T08:53:59;6.72;;;1.63;;
17382;SDS011;8809;51.892;8.384;2023-05-17T08:56:29;4.78;;;1.30;;
17382;SDS011;8809;51.892;8.384;2023-05-17T08:58:57;3.85;;;1.38;;
17382;SDS011;8809;51.892;8.384;2023-05-17T09:01:25;5.57;;;1.77;;
17382;SDS011;8809;51.892;8.384;2023-05-17T09:03:54;3.90;;;1.40;;
17382;SDS011;8809;51.892;8.384;2023-05-17T09:06:22;1.85;;;1.33;;
17382;SDS011;8809;51.892;8.384;2023-05-17T09:08:49;2.97;;;1.25;;
17382;SDS011;8809;51.892;8.384;2023-05-17T09:11:24;8.32;;;1.65;;
17382;SDS011;8809;51.892;8.384;2023-05-17T09:13:56;3.42;;;1.17;;
17382;SDS011;8809;51.892;8.384;2023-05-17T09:16:26;4.40;;;1.50;;
17382;SDS011;8809;51.892;8.384;2023-05-17T09:18:56;4.07;;;1.33;;
17382;SDS011;8809;51.892;8.384;2023-05-17T09:21:24;2.63;;;1.35;;
17382;SDS011;8809;51.892;8.384;2023-05-17T09:23:53;1.63;;;0.95;;
17382;SDS011;8809;51.892;8.384;2023-05-17T09:26:25;3.20;;;1.30;;
17382;SDS011;8809;51.892;8.384;2023-05-17T09:29:06;4.35;;;1.30;;
17382;SDS011;8809;51.892;8.384;2023-05-17T09:31:36;2.65;;;1.13;;
17382;SDS011;8809;51.892;8.384;2023-05-17T09:34:05;3.72;;;1.45;;
17382;SDS011;8809;51.892;8.384;2023-05-17T09:36:36;5.07;;;1.45;;
17382;SDS011;8809;51.892;8.384;2023-05-17T09:39:06;4.57;;;1.10;;
17382;SDS011;8809;51.892;8.384;2023-05-17T09:41:41;4.35;;;1.38;;
17382;SDS011;8809;51.892;8.384;2023-05-17T09:44:10;3.67;;;1.10;;
17382;SDS011;8809;51.892;8.384;2023-05-17T09:46:40;2.83;;;1.00;;
17382;SDS011;8809;51.892;8.384;2023-05-17T09:49:10;6.03;;;1.27;;
17382;SDS011;8809;51.892;8.384;2023-05-17T09:51:39;3.00;;;1.10;;
17382;SDS011;8809;51.892;8.384;2023-05-17T09:54:07;3.80;;;1.30;;
17382;SDS011;8809;51.892;8.384;2023-05-17T09:56:36;5.22;;;1.25;;
17382;SDS011;8809;51.892;8.384;2023-05-17T09:59:09;3.67;;;1.30;;
17382;SDS011;8809;51.892;8.384;2023-05-17T10:01:38;6.93;;;1.63;;
17382;SDS011;8809;51.892;8.384;2023-05-17T10:04:08;3.97;;;1.33;;
17382;SDS011;8809;51.892;8.384;2023-05-17T10:06:36;5.45;;;2.10;;
17382;SDS011;8809;51.892;8.384;2023-05-17T10:09:05;4.97;;;1.33;;
17382;SDS011;8809;51.892;8.384;2023-05-17T10:11:35;3.33;;;1.40;;
17382;SDS011;8809;51.892;8.384;2023-05-17T10:14:10;4.28;;;1.50;;
17382;SDS011;8809;51.892;8.384;2023-05-17T10:16:46;3.22;;;1.20;;
17382;SDS011;8809;51.892;8.384;2023-05-17T10:19:18;4.18;;;1.50;;
17382;SDS011;8809;51.892;8.384;2023-05-17T10:21:47;5.00;;;1.40;;
17382;SDS011;8809;51.892;8.384;2023-05-17T10:24:18;3.00;;;1.42;;
17382;SDS011;8809;51.892;8.384;2023-05-17T10:26:48;4.47;;;1.50;;
17382;SDS011;8809;51.892;8.384;2023-05-17T10:29:23;2.88;;;1.23;;
17382;SDS011;8809;51.892;8.384;2023-05-17T10:31:51;3.25;;;1.27;;
17382;SDS011;8809;51.892;8.384;2023-05-17T10:34:18;4.53;;;1.20;;
17382;SDS011;8809;51.892;8.384;2023-05-17T10:36:46;3.13;;;1.38;;
17382;SDS011;8809;51.892;8.384;2023-05-17T10:39:15;2.97;;;1.20;;
17382;SDS011;8809;51.892;8.384;2023-05-17T10:41:43;2.75;;;1.42;;
17382;SDS011;8809;51.892;8.384;2023-05-17T10:44:14;3.65;;;1.50;;
17382;SDS011;8809;51.892;8.384;2023-05-17T10:46:51;5.07;;;1.50;;
17382;SDS011;8809;51.892;8.384;2023-05-17T10:49:22;4.60;;;1.45;;
17382;SDS011;8809;51.892;8.384;2023-05-17T10:51:52;4.65;;;1.65;;
17382;SDS011;8809;51.892;8.384;2023-05-17T10:54:21;6.15;;;1.60;;
17382;SDS011;8809;51.892;8.384;2023-05-17T10:57:01;4.40;;;1.65;;
17382;SDS011;8809;51.892;8.384;2023-05-17T10:59:32;7.60;;;1.65;;
17382;SDS011;8809;51.892;8.384;2023-05-17T11:02:03;3.58;;;1.40;;
17382;SDS011;8809;51.892;8.384;2023-05-17T11:04:33;2.10;;;1.13;;
17382;SDS011;8809;51.892;8.384;2023-05-17T11:07:21;2.67;;;1.08;;
17382;SDS011;8809;51.892;8.384;2023-05-17T11:09:52;4.55;;;1.45;;
17382;SDS011;8809;51.892;8.384;2023-05-17T11:12:33;3.55;;;1.20;;
17382;SDS011;8809;51.892;8.384;2023-05-17T11:15:22;4.57;;;1.50;;
17382;SDS011;8809;51.892;8.384;2023-05-17T11:17:58;5.63;;;1.88;;
17382;SDS011;8809;51.892;8.384;2023-05-17T11:23:35;4.20;;;1.58;;
17382;SDS011;8809;51.892;8.384;2023-05-17T11:26:12;4.28;;;1.40;;
17382;SDS011;8809;51.892;8.384;2023-05-17T11:28:46;3.55;;;1.20;;
17382;SDS011;8809;51.892;8.384;2023-05-17T11:31:16;4.80;;;1.38;;
17382;SDS011;8809;51.892;8.384;2023-05-17T11:33:58;7.50;;;1.98;;
17382;SDS011;8809;51.892;8.384;2023-05-17T11:36:26;4.78;;;1.83;;
17382;SDS011;8809;51.892;8.384;2023-05-17T11:41:36;6.13;;;1.70;;
17382;SDS011;8809;51.892;8.384;2023-05-17T11:44:05;5.80;;;1.95;;
17382;SDS011;8809;51.892;8.384;2023-05-17T11:46:34;2.33;;;1.15;;
17382;SDS011;8809;51.892;8.384;2023-05-17T11:49:08;4.25;;;1.38;;
17382;SDS011;8809;51.892;8.384;2023-05-17T11:52:09;2.38;;;1.20;;
17382;SDS011;8809;51.892;8.384;2023-05-17T11:54:47;3.78;;;1.50;;
17382;SDS011;8809;51.892;8.384;2023-05-17T11:57:17;4.22;;;1.75;;
17382;SDS011;8809;51.892;8.384;2023-05-17T11:59:47;5.32;;;1.70;;
17382;SDS011;8809;51.892;8.384;2023-05-17T12:02:27;4.55;;;1.40;;
17382;SDS011;8809;51.892;8.384;2023-05-17T12:04:56;3.40;;;1.55;;
17382;SDS011;8809;51.892;8.384;2023-05-17T12:07:25;2.22;;;1.10;;
17382;SDS011;8809;51.892;8.384;2023-05-17T12:09:53;5.28;;;1.70;;
17382;SDS011;8809;51.892;8.384;2023-05-17T12:12:20;3.38;;;1.30;;
17382;SDS011;8809;51.892;8.384;2023-05-17T12:14:48;2.33;;;1.30;;
17382;SDS011;8809;51.892;8.384;2023-05-17T12:17:18;3.65;;;1.42;;
17382;SDS011;8809;51.892;8.384;2023-05-17T12:19:52;5.88;;;1.58;;
17382;SDS011;8809;51.892;8.384;2023-05-17T12:22:22;2.90;;;1.42;;
17382;SDS011;8809;51.892;8.384;2023-05-17T12:24:52;4.45;;;1.70;;
17382;SDS011;8809;51.892;8.384;2023-05-17T12:27:25;3.50;;;1.50;;
17382;SDS011;8809;51.892;8.384;2023-05-17T12:29:54;4.40;;;1.50;;
17382;SDS011;8809;51.892;8.384;2023-05-17T12:32:22;3.28;;;1.60;;
17382;SDS011;8809;51.892;8.384;2023-05-17T12:34:51;4.82;;;1.73;;
17382;SDS011;8809;51.892;8.384;2023-05-17T12:37:19;4.05;;;1.75;;
17382;SDS011;8809;51.892;8.384;2023-05-17T12:39:48;2.67;;;1.30;;
17382;SDS011;8809;51.892;8.384;2023-05-17T12:42:16;4.75;;;1.83;;
17382;SDS011;8809;51.892;8.384;2023-05-17T12:44:47;3.58;;;1.45;;
17382;SDS011;8809;51.892;8.384;2023-05-17T12:47:14;3.05;;;1.30;;
17382;SDS011;8809;51.892;8.384;2023-05-17T12:49:50;5.43;;;1.55;;
17382;SDS011;8809;51.892;8.384;2023-05-17T12:52:18;4.90;;;1.48;;
17382;SDS011;8809;51.892;8.384;2023-05-17T12:54:47;6.15;;;2.03;;
17382;SDS011;8809;51.892;8.384;2023-05-17T12:57:15;5.60;;;1.98;;
17382;SDS011;8809;51.892;8.384;2023-05-17T12:59:45;4.07;;;1.65;;
17382;SDS011;8809;51.892;8.384;2023-05-17T13:02:15;4.70;;;1.33;;
17382;SDS011;8809;51.892;8.384;2023-05-17T13:04:42;4.13;;;1.30;;
17382;SDS011;8809;51.892;8.384;2023-05-17T13:07:11;4.25;;;1.58;;
17382;SDS011;8809;51.892;8.384;2023-05-17T13:09:44;4.38;;;1.50;;
17382;SDS011;8809;51.892;8.384;2023-05-17T13:12:18;5.22;;;1.83;;
17382;SDS011;8809;51.892;8.384;2023-05-17T13:14:46;5.72;;;1.90;;
17382;SDS011;8809;51.892;8.384;2023-05-17T13:17:16;5.68;;;1.50;;
17382;SDS011;8809;51.892;8.384;2023-05-17T13:19:45;4.80;;;1.60;;
17382;SDS011;8809;51.892;8.384;2023-05-17T13:22:12;3.35;;;1.35;;
17382;SDS011;8809;51.892;8.384;2023-05-17T13:24:42;3.10;;;1.20;;
17382;SDS011;8809;51.892;8.384;2023-05-17T13:27:10;4.28;;;1.65;;
17382;SDS011;8809;51.892;8.384;2023-05-17T13:29:39;5.88;;;1.77;;
17382;SDS011;8809;51.892;8.384;2023-05-17T13:32:08;5.82;;;1.73;;
17382;SDS011;8809;51.892;8.384;2023-05-17T13:34:39;5.47;;;1.67;;
17382;SDS011;8809;51.892;8.384;2023-05-17T13:37:06;5.75;;;1.58;;
17382;SDS011;8809;51.892;8.384;2023-05-17T13:39:34;4.90;;;1.20;;
17382;SDS011;8809;51.892;8.384;2023-05-17T13:42:01;3.30;;;1.35;;
17382;SDS011;8809;51.892;8.384;2023-05-17T13:44:32;4.07;;;1.40;;
17382;SDS011;8809;51.892;8.384;2023-05-17T13:47:02;4.68;;;1.45;;
17382;SDS011;8809;51.892;8.384;2023-05-17T13:49:31;9.57;;;2.22;;
17382;SDS011;8809;51.892;8.384;2023-05-17T13:51:58;3.85;;;1.77;;
17382;SDS011;8809;51.892;8.384;2023-05-17T13:54:26;4.55;;;1.83;;
17382;SDS011;8809;51.892;8.384;2023-05-17T13:56:53;3.33;;;1.88;;
17382;SDS011;8809;51.892;8.384;2023-05-17T13:59:21;5.03;;;1.80;;
17382;SDS011;8809;51.892;8.384;2023-05-17T14:01:49;4.97;;;1.67;;
17382;SDS011;8809;51.892;8.384;2023-05-17T14:04:17;4.18;;;1.63;;
17382;SDS011;8809;51.892;8.384;2023-05-17T14:06:45;4.07;;;1.50;;
17382;SDS011;8809;51.892;8.384;2023-05-17T14:09:13;5.95;;;1.90;;
17382;SDS011;8809;51.892;8.384;2023-05-17T14:11:43;6.00;;;2.10;;
17382;SDS011;8809;51.892;8.384;2023-05-17T14:14:11;5.28;;;2.03;;
17382;SDS011;8809;51.892;8.384;2023-05-17T14:16:38;5.18;;;1.77;;
17382;SDS011;8809;51.892;8.384;2023-05-17T14:19:06;5.55;;;1.60;;
17382;SDS011;8809;51.892;8.384;2023-05-17T14:21:34;3.58;;;1.70;;
17382;SDS011;8809;51.892;8.384;2023-05-17T14:24:02;3.67;;;1.42;;
17382;SDS011;8809;51.892;8.384;2023-05-17T14:26:29;3.40;;;1.55;;
17382;SDS011;8809;51.892;8.384;2023-05-17T14:28:56;3.65;;;1.80;;
17382;SDS011;8809;51.892;8.384;2023-05-17T14:31:23;5.10;;;1.88;;
17382;SDS011;8809;51.892;8.384;2023-05-17T14:33:57;4.75;;;1.60;;
17382;SDS011;8809;51.892;8.384;2023-05-17T14:36:26;2.60;;;1.27;;
17382;SDS011;8809;51.892;8.384;2023-05-17T14:38:54;3.50;;;1.65;;
17382;SDS011;8809;51.892;8.384;2023-05-17T14:41:23;2.25;;;1.15;;
17382;SDS011;8809;51.892;8.384;2023-05-17T14:43:51;4.13;;;1.42;;
17382;SDS011;8809;51.892;8.384;2023-05-17T14:46:18;5.35;;;1.85;;
17382;SDS011;8809;51.892;8.384;2023-05-17T14:48:46;4.53;;;2.10;;
17382;SDS011;8809;51.892;8.384;2023-05-17T14:51:17;3.75;;;1.55;;
17382;SDS011;8809;51.892;8.384;2023-05-17T14:53:44;4.00;;;1.60;;
17382;SDS011;8809;51.892;8.384;2023-05-17T14:56:13;5.32;;;1.70;;
17382;SDS011;8809;51.892;8.384;2023-05-17T14:58:41;4.22;;;1.52;;
17382;SDS011;8809;51.892;8.384;2023-05-17T15:01:09;3.28;;;1.40;;
17382;SDS011;8809;51.892;8.384;2023-05-17T15:03:36;4.85;;;1.67;;
17382;SDS011;8809;51.892;8.384;2023-05-17T15:06:04;4.57;;;1.50;;
17382;SDS011;8809;51.892;8.384;2023-05-17T15:08:31;4.53;;;1.60;;
17382;SDS011;8809;51.892;8.384;2023-05-17T15:10:59;3.60;;;1.30;;
17382;SDS011;8809;51.892;8.384;2023-05-17T15:13:28;3.55;;;1.38;;
17382;SDS011;8809;51.892;8.384;2023-05-17T15:15:56;4.40;;;1.35;;
17382;SDS011;8809;51.892;8.384;2023-05-17T15:18:24;1.60;;;1.10;;